createdAt,value
2022-12-01T00:01:48.022Z,56.05
2022-12-01T00:04:52.100Z,58.60
2022-12-01T00:07:56.155Z,51.00
2022-12-01T00:11:04.117Z,58.00
2022-12-01T00:14:08.501Z,56.22
2022-12-01T00:17:12.559Z,53.13
2022-12-01T00:20:18.078Z,51.80
2022-12-01T00:23:22.013Z,54.40
2022-12-01T00:26:25.387Z,52.30
2022-12-01T00:32:51.524Z,57.22
2022-12-01T00:36:00.861Z,60.53
2022-12-01T00:39:04.984Z,51.20
2022-12-01T00:42:13.102Z,53.07
2022-12-01T00:45:17.533Z,55.97
2022-12-01T00:48:21.637Z,53.60
2022-12-01T00:51:25.754Z,52.30
2022-12-01T00:54:31.621Z,61.53
2022-12-01T00:57:34.395Z,51.33
2022-12-01T01:00:39.916Z,56.70
2022-12-01T01:03:44.002Z,54.92
2022-12-01T01:06:48.023Z,55.33
2022-12-01T01:09:50.908Z,58.87
2022-12-01T01:12:55.042Z,60.93
2022-12-01T01:15:59.438Z,57.22
2022-12-01T01:19:04.762Z,60.97
2022-12-01T01:22:08.757Z,58.03
2022-12-01T01:25:11.483Z,54.50
2022-12-01T01:28:15.378Z,57.60
2022-12-01T01:31:21.444Z,53.72
2022-12-01T01:34:26.891Z,53.10
2022-12-01T01:37:29.655Z,51.05
2022-12-01T01:40:33.607Z,59.93
2022-12-01T01:43:44.456Z,54.33
2022-12-01T01:46:47.322Z,59.85
2022-12-01T01:49:52.877Z,52.67
2022-12-01T01:53:02.269Z,57.63
2022-12-01T01:56:08.265Z,59.70
2022-12-01T01:59:14.287Z,53.27
2022-12-01T02:02:18.806Z,58.70
2022-12-01T02:05:27.319Z,59.17
2022-12-01T02:08:30.796Z,50.17
2022-12-01T02:12:08.365Z,51.70
2022-12-01T02:15:21.560Z,52.27
2022-12-01T02:18:32.430Z,49.65
2022-12-01T02:21:55.898Z,53.15
2022-12-01T02:25:20.697Z,59.00
2022-12-01T02:28:57.151Z,55.10
2022-12-01T02:32:12.115Z,57.67
2022-12-01T02:35:22.805Z,61.25
2022-12-01T02:38:31.995Z,59.58
2022-12-01T02:41:39.498Z,56.65
2022-12-01T02:44:47.171Z,60.47
2022-12-01T02:47:55.072Z,58.03
2022-12-01T02:51:02.428Z,57.97
2022-12-01T02:54:07.045Z,61.78
2022-12-01T02:57:13.957Z,59.55
2022-12-01T03:00:20.195Z,54.40
2022-12-01T03:03:58.192Z,62.07
2022-12-01T03:07:14.003Z,59.22
2022-12-01T03:13:56.686Z,54.17
2022-12-01T03:17:04.472Z,61.43
2022-12-01T03:20:13.838Z,65.17
2022-12-01T03:23:24.042Z,57.42
2022-12-01T03:26:31.744Z,63.20
2022-12-01T03:29:39.939Z,69.38
2022-12-01T03:32:49.498Z,53.90
2022-12-01T03:35:57.347Z,61.60
2022-12-01T03:39:05.994Z,62.25
2022-12-01T03:42:16.573Z,63.25
2022-12-01T03:45:25.549Z,53.92
2022-12-01T03:48:30.622Z,55.47
2022-12-01T03:51:44.539Z,53.05
2022-12-01T03:54:53.394Z,56.47
2022-12-01T03:58:02.663Z,57.22
2022-12-01T04:01:06.536Z,52.40
2022-12-01T04:04:12.755Z,56.63
2022-12-01T04:07:16.783Z,61.22
2022-12-01T04:10:19.792Z,59.22
2022-12-01T04:13:23.946Z,55.03
2022-12-01T04:16:26.768Z,56.15
2022-12-01T04:19:30.846Z,67.80
2022-12-01T04:22:35.331Z,53.20
2022-12-01T04:25:39.292Z,61.05
2022-12-01T04:28:41.996Z,49.45
2022-12-01T04:31:45.981Z,55.10
2022-12-01T04:34:48.750Z,51.13
2022-12-01T04:37:52.797Z,63.03
2022-12-01T04:40:55.546Z,52.67
2022-12-01T04:43:59.885Z,50.55
2022-12-01T04:47:03.290Z,52.75
2022-12-01T04:50:07.171Z,55.57
2022-12-01T04:53:12.522Z,57.07
2022-12-01T04:56:15.229Z,60.10
2022-12-01T04:59:19.533Z,50.17
2022-12-01T05:02:22.283Z,57.95
2022-12-01T05:05:27.041Z,56.03
2022-12-01T05:08:31.147Z,56.50
2022-12-01T05:11:35.868Z,55.08
2022-12-01T05:14:38.599Z,61.22
2022-12-01T05:17:42.687Z,53.72
2022-12-01T05:21:00.467Z,60.60
2022-12-01T05:24:06.278Z,61.33
2022-12-01T05:27:08.970Z,56.47
2022-12-01T05:30:12.841Z,54.67
2022-12-01T05:33:15.603Z,58.28
2022-12-01T05:36:18.336Z,61.13
2022-12-01T05:39:22.414Z,52.57
2022-12-01T05:42:25.191Z,56.28
2022-12-01T05:45:28.335Z,67.38
2022-12-01T05:48:32.331Z,57.03
2022-12-01T05:51:35.152Z,56.07
2022-12-01T05:54:40.469Z,52.47
2022-12-01T05:57:43.243Z,50.83
2022-12-01T06:00:47.215Z,55.80
2022-12-01T06:03:50.009Z,51.03
2022-12-01T06:06:54.201Z,55.43
2022-12-01T06:09:58.322Z,54.27
2022-12-01T06:13:01.874Z,58.28
2022-12-01T06:16:06.959Z,55.72
2022-12-01T06:19:11.571Z,52.38
2022-12-01T06:22:14.588Z,58.17
2022-12-01T06:25:20.138Z,58.00
2022-12-01T06:28:22.923Z,62.92
2022-12-01T06:31:26.899Z,64.05
2022-12-01T06:34:29.601Z,62.35
2022-12-01T06:37:32.337Z,61.17
2022-12-01T06:40:36.447Z,64.17
2022-12-01T06:43:39.419Z,58.78
2022-12-01T06:46:42.138Z,64.18
2022-12-01T06:49:44.816Z,61.03
2022-12-01T06:52:47.817Z,67.03
2022-12-01T06:55:51.866Z,67.73
2022-12-01T06:58:55.898Z,62.83
2022-12-01T07:01:59.045Z,60.60
2022-12-01T07:05:01.911Z,58.25
2022-12-01T07:08:06.709Z,57.13
2022-12-01T07:11:13.330Z,57.83
2022-12-01T07:17:45.977Z,59.25
2022-12-01T07:20:49.921Z,62.22
2022-12-01T07:23:53.854Z,61.10
2022-12-01T07:26:57.946Z,67.80
2022-12-01T07:30:01.931Z,67.53
2022-12-01T07:33:04.630Z,63.40
2022-12-01T07:36:09.760Z,58.97
2022-12-01T07:39:13.904Z,59.47
2022-12-01T07:42:18.656Z,65.93
2022-12-01T07:45:21.402Z,68.38
2022-12-01T07:48:24.095Z,66.57
2022-12-01T07:51:28.961Z,74.60
2022-12-01T07:54:31.670Z,65.63
2022-12-01T07:57:37.014Z,70.00
2022-12-01T08:00:39.738Z,79.60
2022-12-01T08:03:44.099Z,80.22
2022-12-01T08:06:48.108Z,81.20
2022-12-01T08:09:51.175Z,84.77
2022-12-01T08:12:56.665Z,90.47
2022-12-01T08:15:59.609Z,80.07
2022-12-01T08:19:03.765Z,78.82
2022-12-01T08:22:06.461Z,78.40
2022-12-01T08:25:09.730Z,75.97
2022-12-01T08:28:15.125Z,85.33
2022-12-01T08:31:20.060Z,88.13
2022-12-01T08:34:24.093Z,73.85
2022-12-01T08:37:26.818Z,88.40
2022-12-01T08:40:29.589Z,80.23
2022-12-01T08:46:57.045Z,84.10
2022-12-01T08:50:01.104Z,76.20
2022-12-01T08:53:03.781Z,79.00
2022-12-01T08:56:10.481Z,84.20
2022-12-01T08:59:14.732Z,84.72
2022-12-01T09:02:19.511Z,88.25
2022-12-01T09:05:22.270Z,86.40
2022-12-01T09:08:36.169Z,86.22
2022-12-01T09:11:39.026Z,88.67
2022-12-01T09:14:49.088Z,93.78
2022-12-01T09:17:51.808Z,90.35
2022-12-01T09:20:56.781Z,79.35
2022-12-01T09:23:59.871Z,82.97
2022-12-01T09:27:04.654Z,90.40
2022-12-01T09:30:10.078Z,82.05
2022-12-01T09:33:14.227Z,87.15
2022-12-01T09:36:16.880Z,85.90
2022-12-01T09:39:21.675Z,88.18
2022-12-01T09:42:35.082Z,88.80
2022-12-01T09:45:44.143Z,91.50
2022-12-01T09:48:50.687Z,83.50
2022-12-01T09:51:54.971Z,81.63
2022-12-01T09:55:01.459Z,88.80
2022-12-01T09:58:05.875Z,81.90
2022-12-01T10:01:17.380Z,76.03
2022-12-01T10:04:24.349Z,78.10
2022-12-01T10:07:31.083Z,74.15
2022-12-01T10:10:39.464Z,80.07
2022-12-01T10:13:43.836Z,75.50
2022-12-01T10:16:56.729Z,72.97
2022-12-01T10:23:44.542Z,76.65
2022-12-01T10:26:54.118Z,81.40
2022-12-01T10:30:03.970Z,77.57
2022-12-01T10:33:18.336Z,70.30
2022-12-01T10:36:22.795Z,62.03
2022-12-01T10:39:32.532Z,65.00
2022-12-01T10:42:40.131Z,65.55
2022-12-01T10:45:45.457Z,62.30
2022-12-01T10:48:57.136Z,63.30
2022-12-01T10:51:59.839Z,70.20
2022-12-01T10:55:03.199Z,64.97
2022-12-01T10:58:14.815Z,61.90
2022-12-01T11:04:52.421Z,61.72
2022-12-01T11:07:55.992Z,60.92
2022-12-01T11:11:00.064Z,56.13
2022-12-01T11:14:05.159Z,61.65
2022-12-01T11:17:31.132Z,57.80
2022-12-01T11:20:38.666Z,57.10
2022-12-01T11:23:46.940Z,60.45
2022-12-01T11:26:50.965Z,57.00
2022-12-01T11:29:57.008Z,60.25
2022-12-01T11:33:01.524Z,64.50
2022-12-01T11:36:08.704Z,55.17
2022-12-01T11:39:25.774Z,63.63
2022-12-01T11:42:34.261Z,53.13
2022-12-01T11:45:40.576Z,53.53
2022-12-01T11:49:00.061Z,57.27
2022-12-01T11:52:18.362Z,53.63
2022-12-01T11:55:23.053Z,55.28
2022-12-01T11:58:25.805Z,59.08
2022-12-01T12:01:41.524Z,58.22
2022-12-01T12:05:18.112Z,59.10
2022-12-01T12:08:37.554Z,54.60
2022-12-01T12:11:49.043Z,55.30
2022-12-01T12:15:03.171Z,55.10
2022-12-01T12:18:32.453Z,54.42
2022-12-01T12:21:40.201Z,51.13
2022-12-01T12:24:57.447Z,55.50
2022-12-01T12:28:16.056Z,53.58
2022-12-01T12:31:29.047Z,49.45
2022-12-01T12:34:47.381Z,54.55
2022-12-01T12:37:59.868Z,54.43
2022-12-01T12:41:15.529Z,51.70
2022-12-01T12:44:40.294Z,57.95
2022-12-01T12:48:04.619Z,53.13
2022-12-01T12:51:14.119Z,52.28
2022-12-01T12:54:25.014Z,46.47
2022-12-01T12:57:42.161Z,55.75
2022-12-01T13:00:51.485Z,56.30
2022-12-01T13:03:59.934Z,49.78
2022-12-01T13:07:07.927Z,51.22
2022-12-01T13:10:24.230Z,49.17
2022-12-01T13:13:34.706Z,52.17
2022-12-01T13:16:42.424Z,49.83
2022-12-01T13:19:48.285Z,48.97
2022-12-01T13:22:53.251Z,46.58
2022-12-01T13:26:01.503Z,50.97
2022-12-01T13:29:08.366Z,45.47
2022-12-01T13:32:28.150Z,48.85
2022-12-01T13:35:33.043Z,45.28
2022-12-01T13:38:36.026Z,45.75
2022-12-01T13:41:41.793Z,45.47
2022-12-01T13:44:52.922Z,49.50
2022-12-01T13:47:56.942Z,44.25
2022-12-01T13:51:03.077Z,44.65
2022-12-01T13:54:27.014Z,49.97
2022-12-01T13:57:33.608Z,43.37
2022-12-01T14:00:36.734Z,45.70
2022-12-01T14:03:43.105Z,48.47
2022-12-01T14:06:50.336Z,43.33
2022-12-01T14:09:55.477Z,47.30
2022-12-01T14:13:04.449Z,44.70
2022-12-01T14:16:07.622Z,42.25
2022-12-01T14:19:30.586Z,42.70
2022-12-01T14:22:36.527Z,41.60
2022-12-01T14:25:40.761Z,50.45
2022-12-01T14:29:20.114Z,44.00
2022-12-01T14:32:25.145Z,43.70
2022-12-01T14:35:28.000Z,45.78
2022-12-01T14:38:32.014Z,45.17
2022-12-01T14:41:42.875Z,48.53
2022-12-01T14:44:50.862Z,48.00
2022-12-01T14:51:32.987Z,52.83
2022-12-01T14:54:43.878Z,52.15
2022-12-01T14:57:50.484Z,49.97
2022-12-01T15:01:15.857Z,48.10
2022-12-01T15:04:21.626Z,49.38
2022-12-01T15:07:24.485Z,42.92
2022-12-01T15:10:34.538Z,43.15
2022-12-01T15:13:48.190Z,44.63
2022-12-01T15:16:53.386Z,46.83
2022-12-01T15:19:57.834Z,42.65
2022-12-01T15:23:03.152Z,48.88
2022-12-01T15:26:07.335Z,49.60
2022-12-01T15:29:17.329Z,47.65
2022-12-01T15:32:22.704Z,41.37
2022-12-01T15:35:27.460Z,45.72
2022-12-01T15:38:34.129Z,48.95
2022-12-01T15:41:41.500Z,45.38
2022-12-01T15:44:45.265Z,44.27
2022-12-01T15:47:49.948Z,47.85
2022-12-01T15:51:07.027Z,48.72
2022-12-01T15:54:20.501Z,49.28
2022-12-01T15:57:23.491Z,48.47
2022-12-01T16:00:26.477Z,50.23
2022-12-01T16:03:30.886Z,52.45
2022-12-01T16:06:39.142Z,47.42
2022-12-01T16:09:44.619Z,51.97
2022-12-01T16:12:47.445Z,45.80
2022-12-01T16:15:50.139Z,47.33
2022-12-01T16:18:56.776Z,49.70
2022-12-01T16:22:05.750Z,47.08
2022-12-01T16:25:18.998Z,48.25
2022-12-01T16:28:23.909Z,53.67
2022-12-01T16:34:50.981Z,46.97
2022-12-01T16:37:55.983Z,47.92
2022-12-01T16:41:02.519Z,55.42
2022-12-01T16:44:27.447Z,48.50
2022-12-01T16:47:32.203Z,51.30
2022-12-01T16:50:36.287Z,53.80
2022-12-01T16:53:40.493Z,52.40
2022-12-01T16:56:44.425Z,48.47
2022-12-01T16:59:47.107Z,55.37
2022-12-01T17:02:49.947Z,51.67
2022-12-01T17:05:53.776Z,49.53
2022-12-01T17:08:57.919Z,48.45
2022-12-01T17:12:01.253Z,50.90
2022-12-01T17:15:04.125Z,47.87
2022-12-01T17:18:08.206Z,50.80
2022-12-01T17:21:12.022Z,48.55
2022-12-01T17:24:19.043Z,48.15
2022-12-01T17:27:22.189Z,53.55
2022-12-01T17:30:26.971Z,50.97
2022-12-01T17:33:30.999Z,51.73
2022-12-01T17:36:33.794Z,48.65
2022-12-01T17:42:59.876Z,49.92
2022-12-01T17:46:03.225Z,48.20
2022-12-01T17:49:10.508Z,51.67
2022-12-01T17:52:13.232Z,50.90
2022-12-01T17:55:18.749Z,48.33
2022-12-01T17:58:21.631Z,52.60
2022-12-01T18:01:30.152Z,48.73
2022-12-01T18:04:35.217Z,50.17
2022-12-01T18:07:38.607Z,46.38
2022-12-01T18:10:43.994Z,53.83
2022-12-01T18:13:53.419Z,48.17
2022-12-01T18:16:56.208Z,46.77
2022-12-01T18:19:58.916Z,46.20
2022-12-01T18:23:01.629Z,46.10
2022-12-01T18:26:13.714Z,46.88
2022-12-01T18:29:25.716Z,43.33
2022-12-01T18:32:29.736Z,46.33
2022-12-01T18:35:32.478Z,44.80
2022-12-01T18:38:36.504Z,45.53
2022-12-01T18:41:40.973Z,49.05
2022-12-01T18:44:43.710Z,43.92
2022-12-01T18:47:46.488Z,45.63
2022-12-01T18:50:54.967Z,45.87
2022-12-01T18:54:04.502Z,51.38
2022-12-01T18:57:08.631Z,50.63
2022-12-01T19:00:12.874Z,46.22
2022-12-01T19:03:15.857Z,46.53
2022-12-01T19:06:20.917Z,47.77
2022-12-01T19:09:23.643Z,50.28
2022-12-01T19:12:27.807Z,49.17
2022-12-01T19:15:31.773Z,50.53
2022-12-01T19:18:34.513Z,47.15
2022-12-01T19:21:38.962Z,46.08
2022-12-01T19:24:44.840Z,44.55
2022-12-01T19:27:53.173Z,43.95
2022-12-01T19:34:17.639Z,44.42
2022-12-01T19:37:20.925Z,45.70
2022-12-01T19:40:23.756Z,43.25
2022-12-01T19:43:28.200Z,44.10
2022-12-01T19:46:30.998Z,45.23
2022-12-01T19:49:34.972Z,45.42
2022-12-01T19:52:38.880Z,48.38
2022-12-01T19:55:41.619Z,45.22
2022-12-01T19:58:45.789Z,44.10
2022-12-01T20:01:49.992Z,49.10
2022-12-01T20:04:52.931Z,48.35
2022-12-01T20:07:55.941Z,41.70
2022-12-01T20:11:00.083Z,45.97
2022-12-01T20:14:05.721Z,44.63
2022-12-01T20:17:12.896Z,40.47
2022-12-01T20:20:18.414Z,41.63
2022-12-01T20:23:21.184Z,45.35
2022-12-01T20:26:30.211Z,43.85
2022-12-01T20:29:34.781Z,43.38
2022-12-01T20:32:38.788Z,41.07
2022-12-01T20:35:41.472Z,47.70
2022-12-01T20:38:45.555Z,47.88
2022-12-01T20:41:48.427Z,47.22
2022-12-01T20:44:53.784Z,49.08
2022-12-01T20:47:56.519Z,42.53
2022-12-01T20:51:02.480Z,44.17
2022-12-01T20:57:29.994Z,49.75
2022-12-01T21:00:35.364Z,44.45
2022-12-01T21:03:39.415Z,44.90
2022-12-01T21:06:43.423Z,43.63
2022-12-01T21:09:46.321Z,42.97
2022-12-01T21:16:36.200Z,42.85
2022-12-01T21:19:46.319Z,42.40
2022-12-01T21:22:52.409Z,45.65
2022-12-01T21:25:56.496Z,40.92
2022-12-01T21:29:02.157Z,43.08
2022-12-01T21:32:14.580Z,38.65
2022-12-01T21:35:21.576Z,40.77
2022-12-01T21:38:25.646Z,43.67
2022-12-01T21:41:31.688Z,38.58
2022-12-01T21:44:39.399Z,40.30
2022-12-01T21:47:43.664Z,42.38
2022-12-01T21:50:52.423Z,38.60
2022-12-01T21:53:57.567Z,39.08
2022-12-01T21:57:01.631Z,40.42
2022-12-01T22:00:28.837Z,42.72
2022-12-01T22:03:34.668Z,38.28
2022-12-01T22:06:40.612Z,40.87
2022-12-01T22:09:43.328Z,37.88
2022-12-01T22:12:46.165Z,38.75
2022-12-01T22:15:48.959Z,40.33
2022-12-01T22:22:23.975Z,39.30
2022-12-01T22:25:28.352Z,40.55
2022-12-01T22:28:32.388Z,41.38
2022-12-01T22:31:35.383Z,41.30
2022-12-01T22:34:40.040Z,36.65
2022-12-01T22:37:47.290Z,41.87
2022-12-01T22:40:58.369Z,37.75
2022-12-01T22:44:02.750Z,35.45
2022-12-01T22:47:05.895Z,41.35
2022-12-01T22:50:27.349Z,40.50
2022-12-01T22:53:31.972Z,36.73
2022-12-01T22:56:40.234Z,39.40
2022-12-01T22:59:46.222Z,37.42
2022-12-01T23:02:50.951Z,38.30
2022-12-01T23:05:59.207Z,37.03
2022-12-01T23:09:02.923Z,40.80
2022-12-01T23:12:22.489Z,38.97
2022-12-01T23:15:32.216Z,36.63
2022-12-01T23:18:34.940Z,41.83
2022-12-01T23:21:40.268Z,36.15
2022-12-01T23:24:43.517Z,39.37
2022-12-01T23:27:49.681Z,38.47
2022-12-01T23:30:56.765Z,35.50
2022-12-01T23:33:59.596Z,33.05
2022-12-01T23:37:03.803Z,33.92
2022-12-01T23:40:17.086Z,37.70
2022-12-01T23:43:23.736Z,39.65
2022-12-01T23:46:29.374Z,33.65
2022-12-01T23:49:36.223Z,34.85
2022-12-01T23:52:41.599Z,37.45
2022-12-01T23:55:44.337Z,34.13
2022-12-01T23:58:47.708Z,35.70
